createdAt,value
2019-01-23T00:01:04.208Z,-0.60
2019-01-23T00:03:52.274Z,-0.60
2019-01-23T00:06:40.400Z,-0.60
2019-01-23T00:09:28.634Z,-0.60
2019-01-23T00:12:16.695Z,-0.60
2019-01-23T00:18:13.416Z,-0.50
2019-01-23T00:21:01.524Z,-0.60
2019-01-23T00:23:49.596Z,-0.50
2019-01-23T00:26:57.665Z,-0.50
2019-01-23T00:29:45.728Z,-0.50
2019-01-23T00:32:33.832Z,-0.50
2019-01-23T00:35:21.957Z,-0.50
2019-01-23T00:38:10.019Z,-0.50
2019-01-23T00:40:58.055Z,-0.50
2019-01-23T00:43:46.178Z,-0.50
2019-01-23T00:46:55.777Z,-0.50
2019-01-23T00:49:43.830Z,-0.50
2019-01-23T00:52:31.864Z,-0.60
2019-01-23T00:55:19.921Z,-0.50
2019-01-23T00:58:07.972Z,-0.50
2019-01-23T01:00:56.116Z,-0.50
2019-01-23T01:03:44.375Z,-0.50
2019-01-23T01:06:46.774Z,-0.50
2019-01-23T01:09:28.179Z,-0.50
2019-01-23T01:12:09.524Z,-0.50
2019-01-23T01:14:50.694Z,-0.60
2019-01-23T01:17:31.914Z,-0.60
2019-01-23T01:20:13.142Z,-0.50
2019-01-23T01:22:54.438Z,-0.50
2019-01-23T01:25:35.722Z,-0.60
2019-01-23T01:28:16.622Z,-0.50
2019-01-23T01:30:57.281Z,-0.50
2019-01-23T01:33:38.447Z,-0.50
2019-01-23T01:36:19.494Z,-0.60
2019-01-23T01:39:00.031Z,-0.50
2019-01-23T01:41:40.489Z,-0.60
2019-01-23T01:44:21.895Z,-0.50
2019-01-23T01:47:03.104Z,-0.50
2019-01-23T01:49:44.569Z,-0.50
2019-01-23T01:52:25.847Z,-0.50
2019-01-23T01:55:07.258Z,-0.50
2019-01-23T01:57:48.585Z,-0.50
2019-01-23T02:00:29.584Z,-0.40
2019-01-23T02:03:10.123Z,-0.40
2019-01-23T02:05:51.353Z,-0.40
2019-01-23T02:08:32.658Z,-0.50
2019-01-23T02:11:13.713Z,-0.50
2019-01-23T02:13:55.124Z,-0.50
2019-01-23T02:16:36.552Z,-0.50
2019-01-23T02:19:17.831Z,-0.50
2019-01-23T02:21:58.408Z,-0.50
2019-01-23T02:24:39.721Z,-0.40
2019-01-23T02:27:20.914Z,-0.40
2019-01-23T02:30:02.321Z,-0.50
2019-01-23T02:32:43.632Z,-0.40
2019-01-23T02:35:24.808Z,-0.50
2019-01-23T02:38:05.772Z,-0.40
2019-01-23T02:40:47.009Z,-0.40
2019-01-23T02:43:27.530Z,-0.40
2019-01-23T02:46:08.779Z,-0.40
2019-01-23T02:48:49.318Z,-0.40
2019-01-23T02:51:30.375Z,-0.40
2019-01-23T02:54:11.807Z,-0.40
2019-01-23T02:56:53.021Z,-0.40
2019-01-23T02:59:34.110Z,-0.40
2019-01-23T03:02:15.146Z,-0.50
2019-01-23T03:04:56.294Z,-0.50
2019-01-23T03:07:35.381Z,-0.60
2019-01-23T03:10:23.458Z,-0.60
2019-01-23T03:13:11.561Z,-0.60
2019-01-23T03:15:59.702Z,-0.50
2019-01-23T03:19:07.770Z,-0.60
2019-01-23T03:21:55.814Z,-0.60
2019-01-23T03:24:43.868Z,-0.60
2019-01-23T03:27:31.943Z,-0.60
2019-01-23T03:30:20.371Z,-0.60
2019-01-23T03:33:08.407Z,-0.70
2019-01-23T03:35:56.501Z,-0.70
2019-01-23T03:38:44.543Z,-0.70
2019-01-23T03:41:32.610Z,-0.70
2019-01-23T03:44:20.655Z,-0.80
2019-01-23T03:47:08.718Z,-0.80
2019-01-23T03:49:56.768Z,-0.80
2019-01-23T03:52:44.911Z,-0.80
2019-01-23T03:55:32.958Z,-0.80
2019-01-23T03:58:21.013Z,-0.90
2019-01-23T04:00:49.802Z,-0.90
2019-01-23T04:03:37.828Z,-1.00
2019-01-23T04:06:18.879Z,-1.10
2019-01-23T04:09:00.251Z,-1.20
2019-01-23T04:11:41.266Z,-1.20
2019-01-23T04:14:21.813Z,-1.20
2019-01-23T04:17:03.170Z,-1.30
2019-01-23T04:19:44.466Z,-1.30
2019-01-23T04:22:25.816Z,-1.30
2019-01-23T04:25:06.343Z,-1.30
2019-01-23T04:27:47.840Z,-1.30
2019-01-23T04:30:29.051Z,-1.30
2019-01-23T04:33:10.414Z,-1.30
2019-01-23T04:35:49.527Z,-1.30
2019-01-23T04:38:37.593Z,-1.20
2019-01-23T04:41:25.635Z,-1.10
2019-01-23T04:44:13.705Z,-1.10
2019-01-23T04:47:01.749Z,-1.00
2019-01-23T04:49:49.818Z,-0.90
2019-01-23T04:52:37.847Z,-0.90
2019-01-23T04:55:25.913Z,-0.90
2019-01-23T04:58:13.949Z,-0.80
2019-01-23T05:01:02.074Z,-0.80
2019-01-23T05:03:50.205Z,-0.70
2019-01-23T05:06:31.051Z,-0.80
2019-01-23T05:09:12.448Z,-0.70
2019-01-23T05:11:53.275Z,-0.70
2019-01-23T05:14:36.218Z,-0.70
2019-01-23T05:17:16.970Z,-0.70
2019-01-23T05:19:58.155Z,-0.70
2019-01-23T05:22:38.688Z,-0.60
2019-01-23T05:25:20.014Z,-0.60
2019-01-23T05:27:59.124Z,-0.60
2019-01-23T05:30:47.181Z,-0.60
2019-01-23T05:33:35.244Z,-0.70
2019-01-23T05:36:23.343Z,-0.80
2019-01-23T05:39:11.378Z,-0.90
2019-01-23T05:42:19.313Z,-1.00
2019-01-23T05:48:06.697Z,-1.20
2019-01-23T05:50:54.837Z,-1.30
2019-01-23T05:54:02.763Z,-1.40
2019-01-23T05:56:50.837Z,-1.40
2019-01-23T05:59:38.875Z,-1.50
2019-01-23T06:02:26.945Z,-1.50
2019-01-23T06:05:07.523Z,-1.50
2019-01-23T06:07:48.854Z,-1.60
2019-01-23T06:10:29.802Z,-1.60
2019-01-23T06:13:11.081Z,-1.60
2019-01-23T06:15:52.307Z,-1.60
2019-01-23T06:18:33.672Z,-1.60
2019-01-23T06:21:14.960Z,-1.70
2019-01-23T06:23:55.526Z,-1.70
2019-01-23T06:26:36.846Z,-1.70
2019-01-23T06:29:18.197Z,-1.70
2019-01-23T06:31:59.264Z,-1.80
2019-01-23T06:34:40.497Z,-1.80
2019-01-23T06:37:21.596Z,-1.80
2019-01-23T06:40:00.703Z,-1.80
2019-01-23T06:42:48.760Z,-1.80
2019-01-23T06:45:36.797Z,-1.80
2019-01-23T06:48:24.866Z,-1.80
2019-01-23T06:51:12.966Z,-1.70
2019-01-23T06:54:01.043Z,-1.70
2019-01-23T06:56:49.080Z,-1.60
2019-01-23T06:59:37.147Z,-1.50
2019-01-23T07:02:25.245Z,-1.40
2019-01-23T07:05:06.477Z,-1.40
2019-01-23T07:07:47.581Z,-1.30
2019-01-23T07:10:28.886Z,-1.20
2019-01-23T07:13:10.206Z,-1.10
2019-01-23T07:15:51.538Z,-1.00
2019-01-23T07:18:32.781Z,-1.00
2019-01-23T07:21:13.266Z,-0.90
2019-01-23T07:23:54.404Z,-0.90
2019-01-23T07:26:35.030Z,-0.90
2019-01-23T07:29:14.040Z,-0.90
2019-01-23T07:32:02.078Z,-0.80
2019-01-23T07:34:50.146Z,-0.80
2019-01-23T07:37:38.184Z,-0.80
2019-01-23T07:40:26.258Z,-0.70
2019-01-23T07:43:34.157Z,-0.70
2019-01-23T07:46:22.216Z,-0.70
2019-01-23T07:49:10.261Z,-0.70
2019-01-23T07:51:58.384Z,-0.70
2019-01-23T07:54:46.424Z,-0.60
2019-01-23T07:57:34.551Z,-0.60
2019-01-23T08:00:42.554Z,-0.60
2019-01-23T08:03:30.617Z,-0.60
2019-01-23T08:06:11.754Z,-0.60
2019-01-23T08:08:52.240Z,-0.50
2019-01-23T08:11:33.485Z,-0.50
2019-01-23T08:14:14.903Z,-0.50
2019-01-23T08:16:54.018Z,-0.50
2019-01-23T08:19:42.046Z,-0.40
2019-01-23T08:22:30.196Z,-0.40
2019-01-23T08:25:18.310Z,-0.40
2019-01-23T08:28:06.365Z,-0.30
2019-01-23T08:30:54.403Z,-0.20
2019-01-23T08:33:42.486Z,-0.20
2019-01-23T08:36:30.525Z,-0.10
2019-01-23T08:39:18.577Z,0.00
2019-01-23T08:42:06.700Z,0.00
2019-01-23T08:44:35.389Z,0.00
2019-01-23T08:47:23.442Z,0.00
2019-01-23T08:50:30.799Z,0.20
2019-01-23T08:53:18.859Z,0.20
2019-01-23T08:56:06.963Z,0.30
2019-01-23T08:58:55.020Z,0.40
2019-01-23T09:01:43.054Z,0.40
2019-01-23T09:04:31.113Z,0.40
2019-01-23T09:07:31.877Z,0.40
2019-01-23T09:10:12.450Z,0.40
2019-01-23T09:13:00.535Z,0.40
2019-01-23T09:15:48.638Z,0.40
2019-01-23T09:18:36.679Z,0.40
2019-01-23T09:21:24.777Z,0.50
2019-01-23T09:24:12.834Z,0.50
2019-01-23T09:27:00.870Z,0.50
2019-01-23T09:29:48.914Z,0.70
2019-01-23T09:32:56.299Z,0.70
2019-01-23T09:36:03.794Z,0.80
2019-01-23T09:42:26.105Z,0.80
2019-01-23T09:45:33.494Z,0.80
2019-01-23T09:51:49.553Z,0.90
2019-01-23T09:54:37.592Z,0.90
2019-01-23T09:57:25.655Z,1.00
2019-01-23T10:00:33.036Z,1.00
2019-01-23T10:03:23.149Z,1.10
2019-01-23T10:06:23.802Z,1.10
2019-01-23T10:09:04.447Z,1.10
2019-01-23T10:11:45.769Z,1.10
2019-01-23T10:14:26.301Z,1.10
2019-01-23T10:17:07.563Z,1.00
2019-01-23T10:19:48.030Z,1.10
2019-01-23T10:22:29.439Z,1.00
2019-01-23T10:25:10.703Z,1.20
2019-01-23T10:27:52.037Z,1.30
2019-01-23T10:30:33.178Z,1.20
2019-01-23T10:33:14.231Z,1.20
2019-01-23T10:35:57.795Z,1.30
2019-01-23T10:38:38.675Z,1.30
2019-01-23T10:41:17.806Z,1.20
2019-01-23T10:44:05.931Z,1.20
2019-01-23T10:46:53.990Z,1.30
2019-01-23T10:50:02.134Z,1.30
2019-01-23T10:52:50.209Z,1.40
2019-01-23T10:55:38.242Z,1.50
2019-01-23T10:58:26.381Z,1.50
2019-01-23T11:01:14.481Z,1.40
2019-01-23T11:04:02.603Z,1.40
2019-01-23T11:06:43.852Z,1.30
2019-01-23T11:09:25.344Z,1.20
2019-01-23T11:12:06.517Z,1.30
2019-01-23T11:14:47.986Z,1.50
2019-01-23T11:17:29.278Z,1.40
2019-01-23T11:20:10.700Z,1.40
2019-01-23T11:22:52.033Z,1.40
2019-01-23T11:25:33.182Z,1.50
2019-01-23T11:28:14.505Z,1.60
2019-01-23T11:30:55.802Z,1.60
2019-01-23T11:33:37.040Z,1.70
2019-01-23T11:36:18.150Z,1.60
2019-01-23T11:38:59.401Z,1.60
2019-01-23T11:41:40.841Z,1.60
2019-01-23T11:44:22.185Z,1.50
2019-01-23T11:47:03.286Z,1.60
2019-01-23T11:49:44.434Z,1.40
2019-01-23T11:52:25.722Z,1.50
2019-01-23T11:55:06.790Z,1.70
2019-01-23T11:57:48.203Z,1.70
2019-01-23T12:00:28.869Z,1.70
2019-01-23T12:03:10.150Z,1.80
2019-01-23T12:05:50.630Z,1.90
2019-01-23T12:08:31.914Z,1.90
2019-01-23T12:11:13.126Z,1.90
2019-01-23T12:13:53.779Z,2.00
2019-01-23T12:16:35.073Z,1.90
2019-01-23T12:19:16.452Z,2.00
2019-01-23T12:30:35.608Z,2.30
2019-01-23T12:33:23.677Z,2.20
2019-01-23T12:36:11.751Z,2.40
2019-01-23T12:38:59.849Z,2.40
2019-01-23T12:41:47.987Z,2.60
2019-01-23T12:44:36.316Z,2.60
2019-01-23T12:47:24.442Z,2.70
2019-01-23T12:53:21.125Z,2.70
2019-01-23T12:56:09.230Z,2.80
2019-01-23T12:58:57.349Z,2.70
2019-01-23T13:01:46.944Z,2.50
2019-01-23T13:04:55.147Z,2.50
2019-01-23T13:07:36.484Z,2.50
2019-01-23T13:10:17.914Z,2.40
2019-01-23T13:12:59.007Z,2.20
2019-01-23T13:15:40.045Z,2.00
2019-01-23T13:18:20.553Z,1.90
2019-01-23T13:21:01.720Z,1.90
2019-01-23T13:23:42.946Z,1.90
2019-01-23T13:26:23.401Z,1.90
2019-01-23T13:29:04.066Z,1.90
2019-01-23T13:31:49.075Z,1.90
2019-01-23T13:34:27.825Z,1.90
2019-01-23T13:37:09.138Z,2.00
2019-01-23T13:39:50.410Z,2.10
2019-01-23T13:42:31.558Z,2.10
2019-01-23T13:45:12.535Z,2.10
2019-01-23T13:47:53.416Z,2.10
2019-01-23T13:50:34.439Z,2.20
2019-01-23T13:53:15.741Z,2.30
2019-01-23T13:55:57.140Z,2.30
2019-01-23T13:58:41.987Z,2.20
2019-01-23T14:01:21.276Z,2.10
2019-01-23T14:04:02.706Z,2.10
2019-01-23T14:06:44.059Z,2.00
2019-01-23T14:09:48.065Z,2.10
2019-01-23T14:12:38.938Z,2.00
2019-01-23T14:15:20.149Z,1.90
2019-01-23T14:18:01.386Z,1.90
2019-01-23T14:20:42.754Z,1.70
2019-01-23T14:23:23.915Z,1.60
2019-01-23T14:26:05.326Z,1.60
2019-01-23T14:28:46.463Z,1.50
2019-01-23T14:31:27.694Z,1.50
2019-01-23T14:34:09.085Z,1.50
2019-01-23T14:36:50.326Z,1.50
2019-01-23T14:39:29.358Z,1.40
2019-01-23T14:42:17.467Z,1.30
2019-01-23T14:45:25.337Z,1.30
2019-01-23T14:48:13.686Z,1.30
2019-01-23T14:51:01.761Z,1.20
2019-01-23T14:53:49.814Z,1.10
2019-01-23T14:56:44.442Z,1.10
2019-01-23T14:59:32.481Z,1.00
2019-01-23T15:02:20.563Z,1.00
2019-01-23T15:05:08.971Z,1.00
2019-01-23T15:07:50.263Z,0.90
2019-01-23T15:10:31.264Z,0.90
2019-01-23T15:13:12.444Z,0.90
2019-01-23T15:15:53.764Z,0.90
2019-01-23T15:18:34.896Z,1.00
2019-01-23T15:21:16.231Z,0.90
2019-01-23T15:23:57.450Z,0.80
2019-01-23T15:26:38.046Z,0.80
2019-01-23T15:29:18.680Z,0.70
2019-01-23T15:31:59.798Z,0.70
2019-01-23T15:34:38.837Z,0.60
2019-01-23T15:37:26.945Z,0.60
2019-01-23T15:43:30.289Z,0.60
2019-01-23T15:46:18.403Z,0.50
2019-01-23T15:49:06.537Z,0.50
2019-01-23T15:52:14.453Z,0.50
2019-01-23T15:55:02.572Z,0.40
2019-01-23T15:57:50.795Z,0.40
2019-01-23T16:00:38.859Z,0.40
2019-01-23T16:03:26.890Z,0.40
2019-01-23T16:06:08.124Z,0.40
2019-01-23T16:08:49.503Z,0.30
2019-01-23T16:11:30.641Z,0.30
2019-01-23T16:14:12.015Z,0.30
2019-01-23T16:16:53.425Z,0.30
2019-01-23T16:19:34.810Z,0.30
2019-01-23T16:22:15.901Z,0.20
2019-01-23T16:24:56.913Z,0.20
2019-01-23T16:27:38.170Z,0.10
2019-01-23T16:30:19.182Z,0.20
2019-01-23T16:33:00.421Z,0.10
2019-01-23T16:35:41.751Z,0.20
2019-01-23T16:38:23.117Z,0.20
2019-01-23T16:41:04.352Z,0.10
2019-01-23T16:43:45.218Z,0.20
2019-01-23T16:46:26.608Z,0.20
2019-01-23T16:49:07.421Z,0.20
2019-01-23T16:51:51.476Z,0.20
2019-01-23T16:54:30.772Z,0.20
2019-01-23T16:57:11.912Z,0.20
2019-01-23T16:59:50.957Z,0.20
2019-01-23T17:02:39.121Z,0.30
2019-01-23T17:08:35.895Z,0.40
2019-01-23T17:11:24.019Z,0.30
2019-01-23T17:14:12.093Z,0.40
2019-01-23T17:17:00.217Z,0.40
2019-01-23T17:19:48.265Z,0.30
2019-01-23T17:22:36.320Z,0.30
2019-01-23T17:25:24.447Z,0.20
2019-01-23T17:28:12.979Z,0.20
2019-01-23T17:31:01.119Z,0.20
2019-01-23T17:34:09.165Z,0.20
2019-01-23T17:36:58.082Z,0.20
2019-01-23T17:43:22.900Z,0.10
2019-01-23T17:46:10.940Z,0.00
2019-01-23T17:48:59.179Z,-0.10
2019-01-23T17:51:47.261Z,-0.20
2019-01-23T17:54:35.266Z,-0.20
2019-01-23T17:57:14.476Z,-0.40
2019-01-23T18:00:02.883Z,-0.40
2019-01-23T18:03:10.954Z,-0.40
2019-01-23T18:05:52.419Z,-0.50
2019-01-23T18:08:33.049Z,-0.50
2019-01-23T18:11:13.748Z,-0.50
2019-01-23T18:13:54.610Z,-0.50
2019-01-23T18:16:36.052Z,-0.60
2019-01-23T18:19:17.556Z,-0.50
2019-01-23T18:21:58.577Z,-0.50
2019-01-23T18:24:39.749Z,-0.50
2019-01-23T18:27:20.959Z,-0.50
2019-01-23T18:30:02.239Z,-0.50
2019-01-23T18:32:43.912Z,-0.50
2019-01-23T18:35:25.337Z,-0.50
2019-01-23T18:38:06.613Z,-0.50
2019-01-23T18:40:50.370Z,-0.60
2019-01-23T18:47:06.451Z,-0.60
2019-01-23T18:50:13.818Z,-0.60
2019-01-23T18:53:01.901Z,-0.60
2019-01-23T18:55:50.014Z,-0.60
2019-01-23T18:58:44.232Z,-0.60
2019-01-23T19:01:38.880Z,-0.60
2019-01-23T19:04:07.758Z,-0.70
2019-01-23T19:06:48.596Z,-0.70
2019-01-23T19:09:29.931Z,-0.70
2019-01-23T19:12:11.003Z,-0.70
2019-01-23T19:14:52.245Z,-0.60
2019-01-23T19:17:33.530Z,-0.70
2019-01-23T19:20:14.751Z,-0.70
2019-01-23T19:22:56.073Z,-0.70
2019-01-23T19:25:37.383Z,-0.70
2019-01-23T19:28:18.333Z,-0.70
2019-01-23T19:30:59.502Z,-0.70
2019-01-23T19:33:41.741Z,-0.70
2019-01-23T19:36:22.486Z,-0.70
2019-01-23T19:39:01.702Z,-0.70
2019-01-23T19:41:49.817Z,-0.70
2019-01-23T19:44:37.903Z,-0.70
2019-01-23T19:47:25.939Z,-0.70
2019-01-23T19:50:14.384Z,-0.70
2019-01-23T19:53:02.533Z,-0.70
2019-01-23T19:55:32.153Z,-0.70
2019-01-23T19:58:20.391Z,-0.60
2019-01-23T20:01:08.606Z,-0.70
2019-01-23T20:03:56.689Z,-0.70
2019-01-23T20:06:38.297Z,-0.70
2019-01-23T20:09:19.685Z,-0.70
2019-01-23T20:12:01.034Z,-0.70
2019-01-23T20:14:46.345Z,-0.70
2019-01-23T20:17:27.459Z,-0.70
2019-01-23T20:20:09.927Z,-0.80
2019-01-23T20:22:51.168Z,-0.80
2019-01-23T20:25:32.685Z,-0.70
2019-01-23T20:28:14.021Z,-0.80
2019-01-23T20:30:55.533Z,-0.80
2019-01-23T20:33:36.812Z,-0.80
2019-01-23T20:36:18.031Z,-0.70
2019-01-23T20:38:59.112Z,-0.70
2019-01-23T20:41:39.710Z,-0.70
2019-01-23T20:44:20.249Z,-0.70
2019-01-23T20:47:01.596Z,-0.70
2019-01-23T20:49:42.806Z,-0.70
2019-01-23T20:52:23.373Z,-0.70
2019-01-23T20:55:04.670Z,-0.70
2019-01-23T20:57:46.185Z,-0.70
2019-01-23T21:00:27.606Z,-0.70
2019-01-23T21:03:08.302Z,-0.60
2019-01-23T21:05:49.689Z,-0.60
2019-01-23T21:08:30.900Z,-0.70
2019-01-23T21:11:11.712Z,-0.80
2019-01-23T21:13:53.081Z,-0.70
2019-01-23T21:16:34.126Z,-0.80
2019-01-23T21:19:14.663Z,-0.80
2019-01-23T21:21:56.366Z,-0.90
2019-01-23T21:24:37.810Z,-0.90
2019-01-23T21:27:19.130Z,-0.90
2019-01-23T21:30:00.193Z,-0.90
2019-01-23T21:32:41.538Z,-0.90
2019-01-23T21:35:22.781Z,-0.90
2019-01-23T21:38:01.921Z,-0.90
2019-01-23T21:40:50.065Z,-1.00
2019-01-23T21:43:38.126Z,-1.00
2019-01-23T21:46:26.237Z,-0.90
2019-01-23T21:49:14.320Z,-1.00
2019-01-23T21:52:02.390Z,-1.00
2019-01-23T21:58:19.024Z,-1.00
2019-01-23T22:01:07.135Z,-0.90
2019-01-23T22:03:55.199Z,-0.90
2019-01-23T22:06:35.866Z,-0.90
2019-01-23T22:09:17.208Z,-0.90
2019-01-23T22:11:58.413Z,-0.90
2019-01-23T22:14:40.634Z,-0.90
2019-01-23T22:17:21.931Z,-0.90
2019-01-23T22:20:02.954Z,-0.90
2019-01-23T22:22:43.530Z,-0.90
2019-01-23T22:25:25.851Z,-0.90
2019-01-23T22:28:13.913Z,-0.90
2019-01-23T22:31:02.017Z,-0.90
2019-01-23T22:33:55.915Z,-0.80
2019-01-23T22:36:59.873Z,-0.80
2019-01-23T22:39:47.921Z,-0.80
2019-01-23T22:42:35.981Z,-0.80
2019-01-23T22:45:38.987Z,-0.80
2019-01-23T22:48:33.749Z,-0.80
2019-01-23T22:51:21.893Z,-0.80
2019-01-23T22:54:09.933Z,-0.80
2019-01-23T22:56:58.006Z,-0.90
2019-01-23T22:59:46.158Z,-0.90
2019-01-23T23:02:54.221Z,-0.90
2019-01-23T23:05:42.371Z,-1.00
2019-01-23T23:08:43.129Z,-0.90
2019-01-23T23:11:24.353Z,-0.90
2019-01-23T23:14:05.818Z,-0.90
2019-01-23T23:16:46.893Z,-0.90
2019-01-23T23:19:28.358Z,-0.90
2019-01-23T23:22:09.686Z,-0.90
2019-01-23T23:24:50.764Z,-0.90
2019-01-23T23:27:32.181Z,-0.80
2019-01-23T23:30:13.560Z,-0.80
2019-01-23T23:32:54.641Z,-0.80
2019-01-23T23:35:35.945Z,-0.80
2019-01-23T23:38:17.151Z,-0.80
2019-01-23T23:40:58.417Z,-0.80
2019-01-23T23:43:39.403Z,-0.80
2019-01-23T23:46:20.049Z,-0.80
2019-01-23T23:49:01.230Z,-0.80
2019-01-23T23:51:42.433Z,-0.80
2019-01-23T23:54:23.745Z,-0.80
2019-01-23T23:57:05.129Z,-0.80
2019-01-23T23:59:46.282Z,-0.80
